createdAt,value
2022-09-23T00:00:34.192Z,4.19
2022-09-23T00:16:17.193Z,2.3
2022-09-23T00:31:59.677Z,2.2
2022-09-23T00:47:41.976Z,3.4
2022-09-23T01:03:24.743Z,3.7
2022-09-23T01:19:06.766Z,3.3
2022-09-23T01:34:49.535Z,3.5
2022-09-23T01:50:31.666Z,2.3
2022-09-23T02:06:14.329Z,2.9
2022-09-23T02:21:56.504Z,2.9
2022-09-23T02:37:39.231Z,2.2
2022-09-23T02:53:21.516Z,2.09
2022-09-23T03:09:03.568Z,2.09
2022-09-23T03:24:45.832Z,2.3
2022-09-23T03:40:28.523Z,3.2
2022-09-23T03:56:11.360Z,2.3
2022-09-23T04:11:53.601Z,2.2
2022-09-23T04:27:36.116Z,2.7
2022-09-23T04:43:18.586Z,5.2
2022-09-23T04:59:01.135Z,4.19
2022-09-23T05:14:44.018Z,6.2
2022-09-23T05:30:26.375Z,4.19
2022-09-23T05:46:08.568Z,3.7
2022-09-23T06:01:51.118Z,8.5
2022-09-23T06:17:33.140Z,6
2022-09-23T06:33:15.530Z,5.2
2022-09-23T06:48:58.393Z,3.6
2022-09-23T07:04:41.022Z,3.2
2022-09-23T07:20:23.466Z,4.6
2022-09-23T07:36:06.362Z,4
2022-09-23T07:51:49.240Z,3.4
2022-09-23T08:07:31.996Z,5.5
2022-09-23T08:23:14.249Z,3.5
2022-09-23T08:38:56.536Z,2.2
2022-09-23T08:54:38.830Z,4.3
2022-09-23T09:10:21.378Z,5
2022-09-23T09:26:03.863Z,2.6
2022-09-23T09:41:46.706Z,3.5
2022-09-23T09:57:29.565Z,6.9
2022-09-23T10:13:12.083Z,4.69
2022-09-23T10:13:59.332Z,5.8
2022-09-23T10:29:41.695Z,3.8
2022-09-23T10:45:23.677Z,2.5
2022-09-23T11:01:05.834Z,3.9
2022-09-23T11:16:48.646Z,1.9
2022-09-23T11:32:30.914Z,6.4
2022-09-23T11:48:13.301Z,3.5
2022-09-23T12:03:55.670Z,2.3
2022-09-23T12:19:37.883Z,8.2
2022-09-23T12:35:20.159Z,17.5
2022-09-23T12:51:03.008Z,18.9
2022-09-23T13:06:45.274Z,12.8
2022-09-23T13:22:28.114Z,12
2022-09-23T13:38:10.970Z,10.9
2022-09-23T13:53:52.920Z,11.9
2022-09-23T14:09:35.281Z,10
2022-09-23T14:25:17.920Z,9.2
2022-09-23T14:41:00.395Z,6.8
2022-09-23T14:56:42.370Z,5.7
2022-09-23T15:12:24.399Z,5.9
2022-09-23T15:28:06.765Z,5.2
2022-09-23T15:43:49.243Z,5.7
2022-09-23T15:59:31.939Z,5.4
2022-09-23T16:15:14.549Z,5.3
2022-09-23T16:30:57.189Z,4.8
2022-09-23T16:46:39.619Z,5.3
2022-09-23T17:02:22.248Z,5.5
2022-09-23T17:18:04.634Z,4.8
2022-09-23T17:33:47.150Z,4.4
2022-09-23T17:49:30.084Z,2.8
2022-09-23T18:05:12.740Z,3
2022-09-23T18:20:55.566Z,3.1
2022-09-23T18:36:38.457Z,3
2022-09-23T18:52:20.663Z,3
2022-09-23T19:08:03.086Z,4
2022-09-23T19:23:46.058Z,3.2
2022-09-23T19:39:28.742Z,3.6
2022-09-23T19:55:11.567Z,3.7
2022-09-23T20:10:53.539Z,2.6
2022-09-23T20:26:36.435Z,5.7
2022-09-23T20:42:18.861Z,9
2022-09-23T20:58:00.987Z,7.8
2022-09-23T21:13:43.405Z,7.5
2022-09-23T21:29:26.248Z,6.5
2022-09-23T21:45:08.410Z,6.6
2022-09-23T22:00:51.334Z,7.9
2022-09-23T22:16:33.999Z,6.1
2022-09-23T22:32:16.469Z,5.9
2022-09-23T22:47:58.610Z,6.1
2022-09-23T23:03:41.368Z,5.4
2022-09-23T23:19:23.740Z,5.3
2022-09-23T23:35:06.664Z,5.1
2022-09-23T23:50:49.144Z,4.4
